Weather observations for the past three days for
Miami, Opa Locka Airport
Metric (Imperial)
Date Time (edt) Wind (kph) Vis. (km) Weather Sky Cond. Temperature (ºC) Relative Humidity Wind Chill (°C) Heat Index (°C) Pressure Precipitation (cm)
Air Dwpt 6 hour altimeter (cm) sea level (mb) 1 hr 3 hr 6 hr
Max. Min.
30 23:53 Calm 16.09 Fair CLR 26.1 25 94% 28 76.28 1017.0
30 22:53 NE 6 16.09 Fair CLR 26.7 25 90% 30 76.28 1016.9
30 21:53 NE 7 16.09 Fair CLR 26.1 24.4 90% 28 76.28 1016.8
30 20:53 NE 9 16.09 Fair CLR 26.1 24.4 90% 28 76.28 1016.9
30 19:53 N 13 16.09 Fair CLR 26.1 24.4 32.8 25 90% 28 76.25 1016.6 0.23
30 18:53 NE 13 16.09 Fair CLR 26.7 24.4 87% 30 76.17 1015.7
30 17:53 N 17 16.09 Overcast FEW046 BKN085 OVC110 25 23.9 94% 26 76.23 1016.3 0.23
30 16:53 W 22 16.09 Thunderstorm in Vicinity Light Rain SCT030 BKN035 OVC042 26.7 25 90% 30 76.17 1015.6
30 15:53 SE 19 16.09 A Few Clouds FEW050 32.8 24.4 61% 39 76.2 1016.0
30 14:53 SE 15 16.09 Fair CLR 32.8 23.9 59% 39 76.2 1016.0
30 13:53 SE 19 G 33 16.09 Mostly Cloudy BKN032 BKN045 31.7 25 32.8 28.3 68% 39 76.25 1016.7
30 12:53 E 20 16.09 A Few Clouds FEW029 32.2 25 66% 39 76.3 1017.3
30 11:53 SE 24 16.09 Partly Cloudy FEW026 SCT035 31.7 25.6 70% 40 76.33 1017.8
30 10:53 SE 17 16.09 Partly Cloudy FEW029 SCT042 SCT060 30.6 25.6 75% 38 76.35 1018.0
30 09:53 SE 17 16.09 Fair CLR 31.1 25.6 73% 39 76.33 1017.7
30 08:53 SE 11 16.09 Fair CLR 30 25.6 77% 37 76.3 1017.4
30 07:53 E 7 16.09 A Few Clouds FEW022 27.8 25.6 27.8 26.7 88% 33 76.28 1017.1
30 06:53 E 7 16.09 Fair CLR 27.8 25 85% 32 76.2 1016.0
30 05:53 E 11 16.09 Fair CLR 27.2 25 88% 31 76.15 1015.3
30 04:53 SE 7 16.09 Partly Cloudy SCT026 27.8 24.4 82% 32 76.17 1015.7
30 03:53 E 13 16.09 Partly Cloudy SCT022 27.8 25 85% 32 76.2 1016.1
30 02:53 SE 7 16.09 Fair CLR 27.8 24.4 82% 32 76.23 1016.4
30 01:53 E 17 16.09 Fair CLR 27.2 25 27.2 26.1 88% 31 76.28 1016.9
30 00:53 E 15 16.09 Fair CLR 27.2 25 88% 31 76.28 1017.1
29 23:53 NE 7 16.09 Fair CLR 26.7 25 90% 30 76.33 1017.7
29 22:53 NE 7 16.09 Fair CLR 26.1 25 94% 28 76.33 1017.8
29 21:53 N 7 16.09 Fair CLR 26.1 24.4 90% 28 76.33 1017.6
29 20:53 N 6 16.09 Fair CLR 26.1 24.4 90% 28 76.28 1017.1
29 19:53 NE 11 16.09 Fair CLR 26.7 23.9 27.8 26.1 85% 29 76.25 1016.7 0.15
29 18:53 N 13 16.09 Fair CLR 27.2 24.4 85% 31 76.25 1016.6
29 17:53 NE 11 16.09 Fair CLR 27.2 25.6 91% 31 76.28 1016.9
29 15:53 NE 11 16.09 Light Rain FEW042 BKN060 BKN075 26.7 25 90% 30 76.17 1015.5 0.05
29 14:53 E 15 16.09 Light Rain SCT080 BKN100 OVC110 26.1 25.6 97% 29 76.3 1017.4 0.08
29 13:53 E 13 12.87 Rain BKN100 26.1 26.1 26.1 24.4 100% 29 76.45 1019.2 0.08 1.27
29 12:53 E 7 16.09 Thunderstorm in Vicinity Light Rain SCT060 BKN075 OVC095 26.1 25.6 97% 29 76.45 1019.2 0.1
29 11:53 Calm 16.09 Fair CLR 25.6 25 97% 27 76.38 1018.4
29 10:53 Calm 16.09 Thunderstorm in Vicinity Light Rain FEW075 SCT120 25 24.4 96% 25 76.38 1018.5 1.09
29 09:53 Calm 16.09 Thunderstorm in Vicinity FEW027 24.4 23.3 94% 24 76.4 1018.7 0.03
29 08:53 Calm 4.83 Thunderstorm Fog/Mist BKN010 BKN026 BKN060 24.4 23.3 94% 24 76.38 1018.3 1.07
29 07:53 N 11 16.09 Thunderstorm CLR 25.6 24.4 28.3 25.6 93% 27 76.3 1017.2 0.38
29 06:53 N 19 16.09 Mostly Cloudy FEW013 BKN025 BKN038 27.2 25.6 91% 31 76.25 1016.5 0.38
29 05:53 N 9 16.09 Mostly Cloudy SCT032 SCT039 BKN065 27.8 25.6 88% 33 76.2 1016.0
29 04:53 N 7 16.09 Mostly Cloudy SCT027 BKN035 27.8 25.6 88% 33 76.2 1016.0
29 03:53 NE 6 16.09 Fair CLR 28.3 25.6 85% 34 76.2 1016.0
29 02:53 E 6 16.09 Fair CLR 28.3 25 82% 33 76.23 1016.2
29 01:53 E 9 16.09 A Few Clouds FEW026 28.3 25 30 28.3 82% 33 76.25 1016.7
29 00:53 E 9 16.09 Fair CLR 28.9 25 80% 34 76.28 1016.9
28 23:53 E 9 16.09 Fair CLR 28.9 25.6 82% 35 76.33 1017.5
28 22:53 E 11 16.09 Fair CLR 28.3 25 82% 33 76.3 1017.4
28 21:53 E 6 16.09 Fair CLR 29.4 24.4 75% 35 76.35 1017.9
28 20:53 SE 7 16.09 Fair CLR 29.4 23.9 72% 34 76.28 1017.0
28 19:53 SE 9 16.09 Fair CLR 30 24.4 33.9 29.4 72% 36 76.23 1016.3
28 18:53 SE 13 16.09 A Few Clouds FEW048 30 24.4 72% 36 76.2 1016.1
28 17:53 E 19 16.09 Overcast OVC034 31.1 24.4 68% 37 76.23 1016.2
28 16:53 SE 13 16.09 Fair CLR 32.2 24.4 63% 39 76.2 1015.8
28 15:53 Vrbl 11 16.09 Fair CLR 33.3 24.4 60% 40 76.23 1016.1
28 14:53 SE 11 G 28 16.09 Fair CLR 33.3 23.9 58% 39 76.23 1016.2
28 13:53 SE 19 G 26 16.09 Partly Cloudy SCT042 33.3 23.3 33.9 26.7 56% 39 76.3 1017.4
28 12:53 Vrbl 7 16.09 Partly Cloudy SCT039 32.8 23.9 59% 39 76.38 1018.3
28 11:53 Calm 16.09 Mostly Cloudy BKN040 32.2 24.4 63% 39 76.38 1018.5
28 10:53 S 9 16.09 A Few Clouds FEW030 31.1 25 70% 38 76.4 1018.5
28 09:53 S 9 16.09 Thunderstorm in Vicinity CLR 29.4 25 77% 35 76.38 1018.3
28 08:53 E 6 16.09 Fair CLR 29.4 25 77% 35 76.35 1018.0
28 07:53 Calm 16.09 Thunderstorm in Vicinity CLR 26.7 25.6 27.2 25.6 94% 30 76.33 1017.8
28 06:53 Calm 16.09 Fair CLR 26.1 25 94% 28 76.28 1017.0
28 05:53 Calm 16.09 Fair CLR 26.1 25 94% 28 76.25 1016.6
28 04:53 Calm 16.09 Fair CLR 26.1 24.4 90% 28 76.23 1016.2
28 03:53 Calm 16.09 Fair CLR 26.1 24.4 90% 28 76.23 1016.3
28 01:53 Calm 16.09 Fair CLR 26.1 23.9 26.7 25.6 88% 28 76.3 1017.2
28 00:53 NW 6 16.09 Fair CLR 26.1 23.9 88% 28 76.35 1017.8
Date Time (edt) Wind (kph) Vis. (km) Weather Sky Cond. Air Dwpt Max. Min. Relative Humidity Wind Chill (°C) Heat Index (°C) altimeter (cm) sea level (mb) 1 hr 3 hr 6 hr
6 hour
Temperature (ºC) Pressure Precipitation (cm)